Etusivu
METAR-TAF:

METAR-TAF

Lentoasemat :

Tongatapu, Tonga

Leveyspiiri: 21-14S, Pituuspiiri: 175-09W, korkeus merenpinnasta: 38 m

Tämänhetkinen sää

Tämä raportti tehtiin 1 tunti ja 6 minuuttia sitten, kello 23.00 UTC
Tuuli 7 kn idästä
Lämpötila 31°C
Kosteus 66%
Ilmanpaine 1009 hPa
Näkyvyys 10 km tai enemmän
Muutamia pilviä 1800 ft:n korkeudessa, Kasvava cumulus-pilvi.

METAR: NFTF 192300Z 10007KT 9999 FEW018TCU 31/24 Q1009

Aika: 13:06 (00:06 UTC)

Sääennuste

Tämä raportti tehtiin 36 minuuttia sitten, kello 23.30 UTC
Ennuste voimassa 20. päivästä klo 00 UTC - 20. päivään klo 24 UTC
Tuuli 8 kn idästä/kaakosta
Näkyvyys 10 km tai enemmän
Muutamia pilviä 1600 ft:n korkeudessa
Hajanaisia pilviä 4000 ft:n korkeudessa

TAF: NFTF 192330Z 2000/2024 11008KT 9999 FEW016 SCT040

Säähavainnot ja -ennusteet yli 4000 lentoasemalta (METAR- ja TAF-raportit).

Käytössä olevat sääasemat on merkitty karttaan keltaisilla ja punaisilla pisteillä.

Aseta hiiri pisteen päälle nähdäksesi sääaseman nimen.

Klikkaa sitten nähdäksesi säähavainnot ja -ennusteet.

Kartan vaihtaminen: klikkaa mustalla rastilla varustettuja vihreitä pisteitä, niin voit zoomata sisään; viivalla varustettua vihreää pistettä, niin voit zoomata ulos tai vihreitä nuolia, niin pääset viereisille kartoille.


METAR-TAF: